• Join FlightAware (Why Join?)
  • Login
  • US Flag 
07:29AM EDT


 

Airport Tracker/Info


-or-


 

Live Flight TrackerFlight Track Log ✈ N211JN ✈ 30-Apr-2012 ✈ KTEB - KPDK

Flight Track Log - Related Links

Times and Time Zones

All times are in EDT time to prevent confusion due to time zone crossing. See the N211JN flight status page for this flight to view local times or setup timezone preferences in your user account.

Time Position Orientation Groundspeed Altitude Reporting Facility
EDT Latitude Longitude Course Direction KTS MPH feet Rate Location/Type
10:19AM 40.7993 -74.2181 North  Level FlightAware Approximate
10:20AM 40.8258 -74.2156 276° West 231 266 4,900  Level New York Center
10:21AM 40.8336 -74.3092 277° West 236 272 9,000 3,180 Climbing New York Center
10:22AM 40.8414 -74.3917 263° West 265 305 11,400 2,400 Climbing New York Center
10:23AM 40.8317 -74.5036 237° Southwest 277 319 14,000 2,400 Climbing New York Center
10:24AM 40.7917 -74.5864 235° Southwest 293 337 16,200 1,980 Climbing New York Center
10:25AM 40.7361 -74.6928 234° Southwest 321 369 18,000 1,980 Climbing New York Center
10:26AM 40.6828 -74.7911 237° Southwest 326 375 20,200 1,860 Climbing New York Center
10:27AM 40.6314 -74.8947 235° Southwest 326 375 21,800 1,800 Climbing New York Center
10:28AM 40.5756 -74.9978 231° Southwest 338 389 23,900 1,680 Climbing New York Center
10:29AM 40.5178 -75.0925 231° Southwest 356 410 25,200 1,500 Climbing New York Center
10:30AM 40.4469 -75.2056 230° Southwest 372 428 27,000 1,860 Climbing New York Center
10:31AM 40.3828 -75.3075 231° Southwest 372 428 29,000 1,800 Climbing New York Center
10:32AM 40.3272 -75.3964 230° Southwest 361 415 30,600 1,500 Climbing New York Center
10:33AM 40.2583 -75.5033 232° Southwest 356 410 32,000 1,140 Climbing New York Center
10:34AM 40.2044 -75.5950 239° Southwest 356 410 32,900 900 Climbing New York Center
10:35AM 40.1542 -75.7028 237° Southwest 356 410 33,900 900 Climbing New York Center
10:36AM 40.0994 -75.8128 234° Southwest 356 410 34,800 960 Climbing New York Center
10:37AM 40.0339 -75.9303 237° Southwest 371 427 35,900 600 Climbing New York Center
10:38AM 39.9747 -76.0478 236° Southwest 382 440 36,000  Climbing New York Center
10:39AM 39.9131 -76.1650 240° Southwest 392 451 36,000  Level New York Center
10:40AM 39.8569 -76.2931 235° Southwest 398 458 36,000  Level New York Center
10:41AM 39.7953 -76.4097 235° Southwest 422 486 36,000  Level New York Center
10:42AM 39.7286 -76.5342 236° Southwest 429 494 36,000  Level New York Center
10:43AM 39.6619 -76.6633 237° Southwest 429 494 36,000  Level New York Center
10:44AM 39.5969 -76.7928 235° Southwest 429 494 36,000  Level New York Center
10:45AM 39.5278 -76.9217 225° Southwest 429 494 36,000  Level New York Center
10:46AM 39.4256 -77.0558 219° Southwest 433 498 36,000  Level Washington Center
10:47AM 39.3306 -77.1558 218° Southwest 433 498 36,000  Level Washington Center
10:48AM 39.2356 -77.2531 219° Southwest 440 506 36,000  Level Washington Center
10:49AM 39.1381 -77.3550 218° Southwest 445 512 36,000  Level Washington Center
10:50AM 39.0386 -77.4542 219° Southwest 456 525 36,000  Level Washington Center
10:51AM 38.9433 -77.5533 219° Southwest 455 524 36,000  Level Washington Center
10:52AM 38.8372 -77.6625 219° Southwest 455 524 36,000  Level Washington Center
10:53AM 38.7436 -77.7608 219° Southwest 450 518 36,000  Level Washington Center
10:54AM 38.6567 -77.8514 229° Southwest 450 518 36,000  Level Washington Center
10:55AM 38.5686 -77.9817 233° Southwest 447 514 36,000  Level Washington Center
10:56AM 38.4953 -78.1064 234° Southwest 447 514 36,000  Level Washington Center
10:57AM 38.4258 -78.2286 233° Southwest 441 507 36,000  Level Washington Center
10:58AM 38.3586 -78.3403 233° Southwest 441 507 36,000  Level Washington Center
10:59AM 38.2892 -78.4594 235° Southwest 441 507 36,000  Level Washington Center
11:00AM 38.2214 -78.5836 233° Southwest 441 507 36,000  Level Washington Center
11:01AM 38.1517 -78.6997 233° Southwest 436 502 36,000  Level Washington Center
11:02AM 38.0775 -78.8231 233° Southwest 436 502 36,000  Level Washington Center
11:03AM 37.9989 -78.9542 231° Southwest 436 502 36,000  Level Washington Center
11:04AM 37.9247 -79.0719 231° Southwest 436 502 36,000  Level Washington Center
11:05AM 37.8483 -79.1894 228° Southwest 436 502 36,000  Level Washington Center
11:06AM 37.7675 -79.3011 230° Southwest 436 502 36,000  Level Washington Center
11:07AM 37.6867 -79.4231 230° Southwest 449 517 36,000  Level Washington Center
11:08AM 37.6100 -79.5372 230° Southwest 443 510 36,000  Level Washington Center
11:09AM 37.5308 -79.6564 230° Southwest 443 510 36,000 240 Level Washington Center
11:10AM 37.4539 -79.7700 231° Southwest 443 510 36,500 480 Climbing Washington Center
11:11AM 37.3897 -79.8711 229° Southwest 436 502 37,000 180 Climbing Washington Center
11:13AM 37.2675 -80.0489 230° Southwest 421 484 37,000  Level Atlanta Center
11:14AM 37.1900 -80.1647 230° Southwest 421 484 37,000  Level Atlanta Center
11:15AM 37.1122 -80.2806 230° Southwest 426 490 37,000  Level Atlanta Center
11:16AM 37.0283 -80.4042 230° Southwest 426 490 37,000  Level Atlanta Center
11:17AM 36.9503 -80.5194 230° Southwest 432 497 37,000  Level Atlanta Center
11:18AM 36.8722 -80.6344 229° Southwest 432 497 37,000  Level Atlanta Center
11:19AM 36.7942 -80.7467 230° Southwest 432 497 37,000  Level Atlanta Center
11:20AM 36.7278 -80.8453 230° Southwest 431 496 37,000  Level Atlanta Center
11:21AM 36.6494 -80.9622 230° Southwest 431 496 37,000  Level Atlanta Center
11:22AM 36.5711 -81.0764 230° Southwest 436 502 37,000  Level Atlanta Center
11:23AM 36.4864 -81.2008 230° Southwest 436 502 37,000  Level Atlanta Center
11:24AM 36.4078 -81.3172 229° Southwest 436 502 37,000  Level Atlanta Center
11:25AM 36.3308 -81.4281 228° Southwest 436 502 37,000  Level Atlanta Center
11:26AM 36.2497 -81.5414 230° Southwest 436 502 37,000  Level Atlanta Center
11:27AM 36.1728 -81.6544 230° Southwest 443 510 37,000  Level Atlanta Center
11:28AM 36.0936 -81.7697 228° Southwest 430 495 37,000  Level Atlanta Center
11:29AM 36.0142 -81.8797 229° Southwest 430 495 37,000  Level Atlanta Center
11:30AM 35.9347 -81.9922 228° Southwest 436 502 37,000  Level Atlanta Center
11:31AM 35.8533 -82.1044 229° Southwest 436 502 37,000  Level Atlanta Center
11:32AM 35.7756 -82.2164 230° Southwest 436 502 37,000 -480 Level Atlanta Center
11:33AM 35.6981 -82.3281 228° Southwest 436 502 36,100 -960 Descending Atlanta Center
11:34AM 35.6161 -82.4394 229° Southwest 436 502 35,100 -600 Descending Atlanta Center
11:35AM 35.5381 -82.5508 225° Southwest 436 502 35,000 -60 Descending Atlanta Center
11:36AM 35.4539 -82.6544 229° Southwest 436 502 35,000 -720 Level Atlanta Center
11:37AM 35.3839 -82.7547 228° Southwest 436 502 33,600 -1,800 Descending Atlanta Center
11:38AM 35.3036 -82.8631 229° Southwest 436 502 31,500 -2,220 Descending Atlanta Center
11:39AM 35.2131 -82.9889 229° Southwest 447 514 29,200 -2,100 Descending Atlanta Center
11:40AM 35.1408 -83.0889 229° Southwest 441 507 27,300 -1,980 Descending Atlanta Center
11:41AM 35.0622 -83.1989 228° Southwest 436 502 25,300 -1,980 Descending Atlanta Center
11:42AM 34.9878 -83.2986 228° Southwest 426 490 23,400 -1,800 Descending Atlanta Center
11:43AM 34.9111 -83.4031 228° Southwest 420 483 21,700 -1,740 Descending Atlanta Center
11:44AM 34.8386 -83.4997 228° Southwest 409 471 20,000 -1,800 Descending Atlanta Center
11:45AM 34.7681 -83.5964 229° Southwest 391 450 18,200 -1,740 Descending Atlanta Center
11:46AM 34.6994 -83.6928 228° Southwest 391 450 16,600 -1,680 Descending Atlanta Center
11:47AM 34.6308 -83.7864 227° Southwest 379 436 14,900 -1,920 Descending Atlanta Center
11:48AM 34.5642 -83.8722 228° Southwest 368 423 12,800 -1,800 Descending Atlanta Center
11:49AM 34.5039 -83.9531 216° Southwest 333 383 11,400 -1,440 Descending Atlanta Center
11:50AM 34.4328 -84.0161 202° Southwest 307 353 10,000 -1,440 Descending Atlanta Center
11:51AM 34.3642 -84.0489 203° Southwest 286 329 8,600 -1,020 Descending Atlanta Center
11:52AM 34.2953 -84.0842 200° South 273 314 8,000 -780 Descending Atlanta Center
11:55AM 34.1053 -84.1667 192° South 237 273 5,700 -900 Descending Atlanta Center
11:56AM 34.0447 -84.1817 165° South 219 252 4,500 -900 Descending Atlanta Center
11:57AM 33.9903 -84.1642 193° South 209 241 3,900 -300 Descending Atlanta Center
11:58AM 33.9467 -84.1764 196° South 192 221 3,900 -360 Level Atlanta Center
11:59AM 33.8964 -84.1939 233° Southwest 187 215 3,200 -660 Descending Atlanta Center
12:00PM 33.8500 -84.2667 239° Southwest 178 205 2,400 -540 Descending Atlanta TRACON
12:01PM 33.8333 -84.3000 239° Southwest 165 190 2,000 -420 Descending Atlanta TRACON